Time;durP1;ratioP1;P1;durP2;ratioP2;P2;SDS_P1;SDS_P2;PMS_P1;PMS_P2;Temp;Humidity;BMP_temperature;BMP_pressure;BME280_temperature;BME280_humidity;BME280_pressure;Samples;Min_cycle;Max_cycle;Signal;HPM_P1;HPM_P2
2022/11/20 00:02:16;;;;;;;;;;;;;;;27.81;32.07;100386.47;4979874;28;1098;-43
2022/11/20 00:04:41;;;;;;;;;;;;;;;27.89;32.32;100392.78;4979660;28;1145;-43
2022/11/20 00:07:06;;;;;;;;;;;;;;;27.85;31.89;100376.09;4979759;28;1902;-43
2022/11/20 00:09:32;;;;;;;;;;;;;;;27.84;31.84;100379.84;4979791;28;1094;-42
2022/11/20 00:11:57;;;;;;;;;;;;;;;27.82;32.21;100377.34;4979486;28;1185;-43
2022/11/20 00:14:22;;;;;;;;;;;;;;;27.86;32.06;100362.41;4979654;28;2495;-44
2022/11/20 00:16:47;;;;;;;;;;;;;;;27.80;32.11;100367.75;4979442;28;1114;-43
2022/11/20 00:19:13;;;;;;;;;;;;;;;27.68;32.14;100372.81;4979797;28;1127;-42
2022/11/20 00:21:38;;;;;;;;;;;;;;;27.68;32.44;100378.22;4979362;28;1153;-43
2022/11/20 00:24:03;;;;;;;;;;;;;;;27.62;32.12;100371.75;4978648;28;1165;-43
2022/11/20 00:26:29;;;;;;;;;;;;;;;27.58;32.53;100370.47;4979769;28;1914;-42
2022/11/20 00:28:56;;;;;;;;;;;;;;;27.61;32.39;100367.41;4979544;28;1134;-43
2022/11/20 00:31:21;;;;;;;;;;;;;;;27.69;32.43;100372.69;4979550;28;1142;-44
2022/11/20 00:33:46;;;;;;;;;;;;;;;27.62;32.14;100369.91;4979101;28;1192;-44
2022/11/20 00:36:13;;;;;;;;;;;;;;;27.61;32.32;100376.31;4979504;28;1190;-43
2022/11/20 00:38:38;;;;;;;;;;;;;;;27.71;32.01;100370.59;4979335;28;1154;-44
2022/11/20 00:41:04;;;;;;;;;;;;;;;27.60;32.29;100380.06;4978914;28;1177;-43
2022/11/20 00:43:29;;;;;;;;;;;;;;;27.57;32.23;100387.72;4978817;28;2544;-44
2022/11/20 00:45:58;;;;;;;;;;;;;;;27.51;32.44;100365.00;4978778;28;1066;-43
2022/11/20 00:48:24;;;;;;;;;;;;;;;27.47;32.64;100374.53;4966111;28;2319;-43
2022/11/20 00:50:49;;;;;;;;;;;;;;;27.69;33.09;100375.41;4979121;28;1153;-43
2022/11/20 00:53:14;;;;;;;;;;;;;;;28.58;31.41;100379.44;4979149;28;1094;-43
2022/11/20 00:55:40;;;;;;;;;;;;;;;28.14;31.58;100365.28;4978992;28;1150;-46
2022/11/20 00:58:05;;;;;;;;;;;;;;;28.37;31.48;100367.72;4979188;28;1173;-43
2022/11/20 01:00:30;;;;;;;;;;;;;;;28.73;31.12;100379.28;4978630;28;1094;-43
2022/11/20 01:02:55;;;;;;;;;;;;;;;28.31;30.98;100382.00;4978728;28;1149;-43
2022/11/20 01:05:21;;;;;;;;;;;;;;;28.50;31.28;100383.16;4979140;28;1220;-43
2022/11/20 01:07:46;;;;;;;;;;;;;;;28.79;30.86;100383.91;4978746;28;1894;-43
2022/11/20 01:10:11;;;;;;;;;;;;;;;28.56;30.85;100386.94;4978707;28;1211;-43
2022/11/20 01:12:37;;;;;;;;;;;;;;;28.66;31.27;100391.97;4978395;28;1793;-43
2022/11/20 01:15:02;;;;;;;;;;;;;;;28.72;31.12;100383.03;4978927;28;1197;-43
2022/11/20 01:17:27;;;;;;;;;;;;;;;28.90;30.68;100378.91;4978402;28;1131;-43
2022/11/20 01:19:52;;;;;;;;;;;;;;;28.55;30.98;100371.72;4978370;28;1212;-44
2022/11/20 01:22:18;;;;;;;;;;;;;;;28.29;31.39;100366.00;4978406;28;1146;-43
2022/11/20 01:24:43;;;;;;;;;;;;;;;28.94;30.70;100370.22;4977848;28;1042;-44
2022/11/20 01:27:08;;;;;;;;;;;;;;;28.44;31.43;100381.28;4978632;28;1898;-44
2022/11/20 01:29:34;;;;;;;;;;;;;;;28.90;30.54;100371.63;4978117;28;1118;-44
2022/11/20 01:31:59;;;;;;;;;;;;;;;28.98;30.78;100375.25;4978129;28;1189;-43
2022/11/20 01:34:24;;;;;;;;;;;;;;;28.54;30.71;100370.91;4977888;28;1102;-44
2022/11/20 01:36:50;;;;;;;;;;;;;;;28.83;30.71;100373.47;4978303;28;1193;-44
2022/11/20 01:39:17;;;;;;;;;;;;;;;29.02;30.62;100365.66;4977842;28;1153;-43
2022/11/20 01:44:44;;;;;;;;;;;;;;;28.92;30.84;100355.19;4977695;28;2518;-43
2022/11/20 01:47:10;;;;;;;;;;;;;;;28.82;30.99;100352.88;4978007;28;1964;-43
2022/11/20 01:49:38;;;;;;;;;;;;;;;29.14;30.42;100357.75;4960712;28;1217;-44
2022/11/20 01:52:05;;;;;;;;;;;;;;;28.79;30.75;100358.69;4978016;28;1094;-44
2022/11/20 01:54:32;;;;;;;;;;;;;;;28.95;30.42;100369.16;4977973;28;1133;-44
2022/11/20 01:56:58;;;;;;;;;;;;;;;29.04;30.38;100361.72;4960474;28;1138;-45
2022/11/20 01:59:23;;;;;;;;;;;;;;;28.87;30.67;100360.38;4978131;28;1010;-43
2022/11/20 02:01:48;;;;;;;;;;;;;;;29.27;30.38;100357.78;4977014;28;1162;-43
2022/11/20 02:04:14;;;;;;;;;;;;;;;28.95;30.35;100365.59;4977835;28;1090;-43
2022/11/20 02:06:40;;;;;;;;;;;;;;;28.92;30.85;100361.44;4977731;28;1898;-43
2022/11/20 02:09:06;;;;;;;;;;;;;;;29.49;29.83;100352.16;4960047;28;1134;-44
2022/11/20 02:11:31;;;;;;;;;;;;;;;29.05;30.20;100351.69;4978021;28;1172;-43
2022/11/20 02:13:56;;;;;;;;;;;;;;;29.29;30.27;100350.28;4975904;28;1820;-44
2022/11/20 02:16:22;;;;;;;;;;;;;;;29.48;29.96;100357.78;4977848;28;1102;-43
2022/11/20 02:18:47;;;;;;;;;;;;;;;28.73;30.27;100361.19;4977903;28;1173;-44
2022/11/20 02:21:45;;;;;;;;;;;;;;;29.16;30.05;100358.41;4977480;28;1133;-44
2022/11/20 02:24:19;;;;;;;;;;;;;;;29.04;30.49;100350.88;4947080;28;1360;-44
2022/11/20 02:26:50;;;;;;;;;;;;;;;29.05;30.72;100357.97;4966783;28;1914;-44
2022/11/20 02:29:16;;;;;;;;;;;;;;;29.44;30.17;100355.50;4959804;28;1169;-43
2022/11/20 02:31:42;;;;;;;;;;;;;;;28.75;30.50;100352.00;4960219;28;1115;-44
2022/11/20 02:34:07;;;;;;;;;;;;;;;29.05;30.64;100354.41;4960199;28;1185;-44
2022/11/20 02:36:32;;;;;;;;;;;;;;;29.41;30.15;100363.22;4977072;28;1188;-44
2022/11/20 02:38:58;;;;;;;;;;;;;;;28.95;30.47;100354.78;4977335;28;1153;-43
2022/11/20 02:41:30;;;;;;;;;;;;;;;29.14;30.11;100347.78;4977158;28;1162;-44
2022/11/20 02:43:55;;;;;;;;;;;;;;;29.16;29.87;100345.66;4977241;28;2761;-44
2022/11/20 02:46:20;;;;;;;;;;;;;;;28.95;30.59;100349.34;4976981;28;1902;-44
2022/11/20 02:48:46;;;;;;;;;;;;;;;29.39;30.07;100336.31;4976770;28;1162;-44
2022/11/20 02:51:11;;;;;;;;;;;;;;;29.00;30.21;100335.22;4977035;28;1205;-44
2022/11/20 02:53:36;;;;;;;;;;;;;;;29.12;30.43;100330.03;4976673;28;1125;-43
2022/11/20 02:56:01;;;;;;;;;;;;;;;29.42;29.86;100335.06;4977131;28;1118;-44
2022/11/20 02:58:27;;;;;;;;;;;;;;;28.70;30.85;100339.94;4976507;28;1158;-43
2022/11/20 03:00:52;;;;;;;;;;;;;;;29.17;30.30;100338.38;4976902;28;1154;-43
2022/11/20 03:03:17;;;;;;;;;;;;;;;29.34;29.93;100334.22;4976977;28;1126;-43
2022/11/20 03:05:43;;;;;;;;;;;;;;;28.71;30.94;100341.59;4976820;28;1220;-44
2022/11/20 03:08:08;;;;;;;;;;;;;;;29.19;30.48;100350.69;4976857;28;1965;-44
2022/11/20 03:10:33;;;;;;;;;;;;;;;29.15;29.95;100344.00;4976940;28;1169;-44
2022/11/20 03:12:58;;;;;;;;;;;;;;;29.05;30.39;100339.00;4976663;28;1804;-44
2022/11/20 03:15:24;;;;;;;;;;;;;;;29.40;30.08;100335.25;4976874;28;1169;-44
2022/11/20 03:17:52;;;;;;;;;;;;;;;29.05;30.22;100336.28;4976996;28;1181;-44
2022/11/20 03:20:18;;;;;;;;;;;;;;;29.31;30.12;100325.69;4976880;28;1244;-44
2022/11/20 03:22:43;;;;;;;;;;;;;;;29.51;30.01;100330.28;4976461;28;1209;-42
2022/11/20 03:25:08;;;;;;;;;;;;;;;28.85;30.73;100322.69;4979025;28;1193;-43
2022/11/20 03:27:34;;;;;;;;;;;;;;;29.18;30.01;100331.91;4980601;28;1968;-43
2022/11/20 03:29:59;;;;;;;;;;;;;;;29.27;30.20;100321.72;4980545;28;1161;-42
2022/11/20 03:32:24;;;;;;;;;;;;;;;28.88;30.84;100316.84;4981290;28;1133;-43
2022/11/20 03:34:50;;;;;;;;;;;;;;;29.21;30.42;100313.38;4993169;28;1113;-44
2022/11/20 03:37:15;;;;;;;;;;;;;;;29.14;30.03;100322.56;4979725;28;1157;-44
2022/11/20 03:39:40;;;;;;;;;;;;;;;28.99;30.60;100320.03;4979937;28;1174;-44
2022/11/20 03:42:44;;;;;;;;;;;;;;;29.46;30.03;100311.94;4980070;28;1173;-42
2022/11/20 03:44:51;;;;;;;;;;;;;;;28.80;30.36;100315.19;4979763;28;1486;-44
2022/11/20 03:47:16;;;;;;;;;;;;;;;29.29;30.24;100312.34;4979977;28;1957;-43
2022/11/20 03:49:41;;;;;;;;;;;;;;;29.41;30.20;100307.13;4979944;28;1107;-44
2022/11/20 03:52:07;;;;;;;;;;;;;;;28.76;30.60;100311.22;4980259;28;1094;-44
2022/11/20 03:54:35;;;;;;;;;;;;;;;29.30;30.10;100311.31;4979926;28;1178;-43
2022/11/20 03:57:00;;;;;;;;;;;;;;;29.34;29.88;100306.31;4979939;28;1169;-43
2022/11/20 03:59:25;;;;;;;;;;;;;;;29.27;30.39;100295.47;4979541;28;1196;-43
2022/11/20 04:01:51;;;;;;;;;;;;;;;29.43;30.09;100296.91;4979735;28;1260;-43
2022/11/20 04:04:16;;;;;;;;;;;;;;;29.02;30.17;100304.22;4980252;28;1190;-43
2022/11/20 04:06:41;;;;;;;;;;;;;;;29.05;30.61;100295.66;4980193;28;1902;-43
2022/11/20 04:09:06;;;;;;;;;;;;;;;29.45;30.15;100304.81;4979747;28;1107;-45
2022/11/20 04:11:32;;;;;;;;;;;;;;;28.81;30.53;100294.38;4979470;28;1200;-43
2022/11/20 04:13:59;;;;;;;;;;;;;;;29.02;30.80;100289.84;4979398;28;1887;-44
2022/11/20 04:16:24;;;;;;;;;;;;;;;29.41;30.30;100280.03;4979675;28;1102;-45
2022/11/20 04:18:56;;;;;;;;;;;;;;;28.78;30.67;100279.38;4979810;28;1149;-43
2022/11/20 04:21:22;;;;;;;;;;;;;;;29.12;30.65;100273.16;4979628;28;1161;-43
2022/11/20 04:23:47;;;;;;;;;;;;;;;29.05;30.25;100262.34;4979288;28;1114;-43
2022/11/20 04:26:12;;;;;;;;;;;;;;;29.20;30.57;100262.97;4978944;28;1149;-44
2022/11/20 04:28:37;;;;;;;;;;;;;;;29.43;30.21;100269.81;4979773;28;1907;-43
2022/11/20 04:31:07;;;;;;;;;;;;;;;29.17;30.35;100260.69;4979231;28;1196;-43
2022/11/20 04:33:32;;;;;;;;;;;;;;;29.11;30.44;100255.25;4979273;28;1177;-43
2022/11/20 04:36:01;;;;;;;;;;;;;;;29.30;30.65;100264.41;4978067;28;1364;-43
2022/11/20 04:38:27;;;;;;;;;;;;;;;28.88;30.46;100253.78;4978308;28;1217;-44
2022/11/20 04:40:55;;;;;;;;;;;;;;;29.07;30.71;100249.44;4978436;28;1237;-45
2022/11/20 04:43:20;;;;;;;;;;;;;;;28.73;32.24;100265.59;4978889;28;1772;-43
2022/11/20 04:45:50;;;;;;;;;;;;;;;27.71;34.71;100278.72;4978829;28;1105;-43
2022/11/20 04:48:15;;;;;;;;;;;;;;;27.00;36.96;100280.41;4979238;28;1902;-43
2022/11/20 04:50:40;;;;;;;;;;;;;;;26.46;38.72;100263.72;4978625;28;1106;-42
2022/11/20 04:53:06;;;;;;;;;;;;;;;26.33;38.29;100259.81;4977609;28;1240;-43
2022/11/20 04:55:31;;;;;;;;;;;;;;;26.19;39.35;100266.91;4978620;28;1070;-41
2022/11/20 04:57:56;;;;;;;;;;;;;;;26.00;39.38;100271.00;4978882;28;1166;-41
2022/11/20 05:00:21;;;;;;;;;;;;;;;25.04;42.04;100267.91;4978235;28;1556;-44
2022/11/20 05:02:47;;;;;;;;;;;;;;;25.05;41.99;100258.78;4979489;28;1130;-43
2022/11/20 05:05:12;;;;;;;;;;;;;;;24.15;44.36;100256.44;4991110;28;1101;-46
2022/11/20 05:07:38;;;;;;;;;;;;;;;23.55;45.99;100262.16;4978929;28;1910;-36
2022/11/20 05:10:03;;;;;;;;;;;;;;;24.08;44.90;100267.06;4978640;28;1181;-39
2022/11/20 05:12:28;;;;;;;;;;;;;;;24.78;43.10;100267.22;4978714;28;1805;-25
2022/11/20 05:14:54;;;;;;;;;;;;;;;25.53;41.14;100274.69;4978951;28;870;-27
2022/11/20 05:17:19;;;;;;;;;;;;;;;25.95;39.97;100282.34;4978446;28;1170;-29
2022/11/20 05:19:44;;;;;;;;;;;;;;;26.12;39.59;100280.28;4978619;28;1165;-26
2022/11/20 05:22:09;;;;;;;;;;;;;;;26.22;39.17;100274.59;4978475;28;1149;-26
2022/11/20 05:24:35;;;;;;;;;;;;;;;26.27;39.04;100274.03;4978102;28;1094;-26
2022/11/20 05:27:00;;;;;;;;;;;;;;;26.00;40.02;100262.91;4978082;28;1959;-27
2022/11/20 05:29:25;;;;;;;;;;;;;;;25.94;39.71;100269.91;4978911;28;1177;-26
2022/11/20 05:31:50;;;;;;;;;;;;;;;25.52;40.79;100266.78;4978269;28;1161;-27
2022/11/20 05:34:16;;;;;;;;;;;;;;;25.55;40.89;100274.50;4978239;28;1185;-25
2022/11/20 05:36:41;;;;;;;;;;;;;;;25.39;41.36;100279.00;4978258;28;1122;-29
2022/11/20 05:39:06;;;;;;;;;;;;;;;25.41;41.48;100287.75;4977960;28;1138;-26
2022/11/20 05:41:32;;;;;;;;;;;;;;;25.68;40.37;100296.28;4978151;28;1107;-31
2022/11/20 05:43:58;;;;;;;;;;;;;;;25.40;41.24;100296.00;4989443;28;2654;-27
2022/11/20 05:46:24;;;;;;;;;;;;;;;25.52;40.80;100302.66;4979692;28;1891;-32
2022/11/20 05:48:49;;;;;;;;;;;;;;;25.57;40.96;100299.41;4977962;28;1118;-27
2022/11/20 05:51:15;;;;;;;;;;;;;;;25.75;40.22;100295.53;4976774;28;1212;-28
2022/11/20 05:53:40;;;;;;;;;;;;;;;25.26;41.23;100301.16;4970556;28;1418;-29
2022/11/20 05:56:07;;;;;;;;;;;;;;;25.09;42.05;100292.38;4977376;28;1024;-26
2022/11/20 05:58:32;;;;;;;;;;;;;;;25.10;41.99;100291.38;4977553;28;1185;-27
2022/11/20 06:01:05;;;;;;;;;;;;;;;25.28;41.34;100301.84;4977683;28;1141;-26
2022/11/20 06:03:30;;;;;;;;;;;;;;;25.18;41.64;100302.09;4970642;28;913;-26
2022/11/20 06:05:55;;;;;;;;;;;;;;;25.37;41.03;100294.53;4977460;28;1095;-27
2022/11/20 06:08:20;;;;;;;;;;;;;;;25.72;40.22;100303.97;4977634;28;1914;-28
2022/11/20 06:10:46;;;;;;;;;;;;;;;25.85;40.09;100308.72;4977273;28;1161;-30
2022/11/20 06:13:11;;;;;;;;;;;;;;;25.86;39.62;100303.16;4977824;28;2290;-26
2022/11/20 06:15:36;;;;;;;;;;;;;;;25.72;40.28;100299.44;4977403;28;1193;-26
2022/11/20 06:18:02;;;;;;;;;;;;;;;25.79;40.07;100296.84;4977564;28;1090;-27
2022/11/20 06:20:27;;;;;;;;;;;;;;;25.83;39.66;100308.06;4977494;28;1166;-27
2022/11/20 06:22:52;;;;;;;;;;;;;;;25.86;40.05;100315.81;4977472;28;1177;-26
2022/11/20 06:25:17;;;;;;;;;;;;;;;25.88;39.85;100313.75;4977049;28;1110;-28
2022/11/20 06:27:43;;;;;;;;;;;;;;;25.61;40.36;100306.06;4976783;28;1967;-25
2022/11/20 06:30:08;;;;;;;;;;;;;;;25.54;40.61;100308.66;4977560;28;1204;-28
2022/11/20 06:32:34;;;;;;;;;;;;;;;25.53;40.93;100301.63;4977468;28;1216;-26
2022/11/20 06:34:59;;;;;;;;;;;;;;;25.79;40.10;100302.25;4976845;28;1294;-25
2022/11/20 06:37:24;;;;;;;;;;;;;;;25.98;39.83;100314.31;4977284;28;1515;-30
2022/11/20 06:39:49;;;;;;;;;;;;;;;25.96;39.50;100310.13;4977032;28;1142;-27
2022/11/20 06:42:15;;;;;;;;;;;;;;;26.02;39.70;100317.47;4976905;28;1114;-25
2022/11/20 06:44:40;;;;;;;;;;;;;;;26.03;39.41;100305.66;4976793;28;2506;-27
2022/11/20 06:47:05;;;;;;;;;;;;;;;26.02;39.13;100306.69;4976984;28;1965;-26
2022/11/20 06:49:30;;;;;;;;;;;;;;;26.06;39.66;100315.25;4966836;28;1162;-26
2022/11/20 06:51:56;;;;;;;;;;;;;;;26.09;39.33;100315.69;4977136;28;898;-29
2022/11/20 06:54:21;;;;;;;;;;;;;;;26.13;39.06;100311.59;4977129;28;1344;-25
2022/11/20 06:56:47;;;;;;;;;;;;;;;26.16;39.12;100310.38;4976762;28;1252;-26
2022/11/20 06:59:12;;;;;;;;;;;;;;;26.13;39.21;100302.69;4977782;28;1091;-25
2022/11/20 07:01:38;;;;;;;;;;;;;;;26.14;39.42;100315.97;4980015;28;1122;-26
2022/11/20 07:04:03;;;;;;;;;;;;;;;26.15;39.39;100309.56;4963410;28;1166;-26
2022/11/20 07:06:29;;;;;;;;;;;;;;;26.29;38.57;100312.44;4981285;28;1955;-27
2022/11/20 07:08:54;;;;;;;;;;;;;;;26.13;39.74;100308.06;4980225;28;1169;-30
2022/11/20 07:11:19;;;;;;;;;;;;;;;26.23;38.38;100308.63;4980876;28;1245;-27
2022/11/20 07:13:44;;;;;;;;;;;;;;;26.14;39.56;100298.97;4977827;28;1789;-27
2022/11/20 07:16:10;;;;;;;;;;;;;;;25.73;40.37;100306.50;4979088;28;1036;-26
2022/11/20 07:18:35;;;;;;;;;;;;;;;26.00;39.75;100322.19;4978000;28;1334;-28
2022/11/20 07:21:04;;;;;;;;;;;;;;;26.31;39.14;100314.94;4980039;28;1023;-26
2022/11/20 07:23:30;;;;;;;;;;;;;;;26.35;39.12;100300.94;4980254;28;1153;-27
2022/11/20 07:25:55;;;;;;;;;;;;;;;26.41;38.29;100304.72;4980555;28;1198;-26
2022/11/20 07:28:20;;;;;;;;;;;;;;;26.38;37.97;100318.56;4980337;28;1918;-28
2022/11/20 07:30:52;;;;;;;;;;;;;;;26.37;38.57;100328.53;4994145;28;1197;-26
2022/11/20 07:33:17;;;;;;;;;;;;;;;26.46;38.69;100325.75;4980472;28;1122;-28
2022/11/20 07:35:42;;;;;;;;;;;;;;;26.46;38.27;100318.47;4980589;28;1170;-27
2022/11/20 07:38:08;;;;;;;;;;;;;;;26.59;38.14;100308.88;4980374;28;1110;-27
2022/11/20 07:40:33;;;;;;;;;;;;;;;26.65;36.92;100311.66;4980178;28;1620;-27
2022/11/20 07:42:58;;;;;;;;;;;;;;;26.69;38.54;100304.00;4980377;28;2350;-27
2022/11/20 07:45:24;;;;;;;;;;;;;;;26.72;37.13;100314.41;4980111;28;1224;-27
2022/11/20 07:47:49;;;;;;;;;;;;;;;26.74;36.97;100306.94;4980140;28;1981;-24
2022/11/20 07:50:14;;;;;;;;;;;;;;;26.77;37.16;100298.50;4979959;28;1209;-28
2022/11/20 07:52:40;;;;;;;;;;;;;;;26.83;36.88;100304.13;4979872;28;994;-25
2022/11/20 07:55:05;;;;;;;;;;;;;;;26.78;36.90;100293.91;4980010;28;1146;-26
2022/11/20 07:57:31;;;;;;;;;;;;;;;26.96;36.86;100298.03;4979952;28;1150;-27
2022/11/20 07:59:56;;;;;;;;;;;;;;;26.97;36.90;100314.06;4979470;28;1244;-30
2022/11/20 08:02:21;;;;;;;;;;;;;;;26.97;36.80;100316.75;4979728;28;1107;-27
2022/11/20 08:04:47;;;;;;;;;;;;;;;27.04;36.75;100311.44;4979991;28;935;-29
2022/11/20 08:07:12;;;;;;;;;;;;;;;27.13;35.74;100312.97;4979561;28;1906;-29
2022/11/20 08:09:37;;;;;;;;;;;;;;;27.15;36.43;100304.69;4980286;28;1078;-27
2022/11/20 08:14:46;;;;;;;;;;;;;;;26.89;37.31;100320.38;4977986;28;1332;-27
2022/11/20 08:17:12;;;;;;;;;;;;;;;26.98;36.91;100313.00;4979636;28;897;-31
2022/11/20 08:19:37;;;;;;;;;;;;;;;26.82;36.97;100318.66;4979536;28;1189;-28
2022/11/20 08:22:02;;;;;;;;;;;;;;;26.87;37.06;100325.16;4979383;28;1121;-26
2022/11/20 08:24:28;;;;;;;;;;;;;;;26.88;36.86;100317.88;4979464;28;1126;-27
2022/11/20 08:26:53;;;;;;;;;;;;;;;26.83;37.66;100318.47;4979679;28;1968;-26
2022/11/20 08:29:18;;;;;;;;;;;;;;;26.90;37.27;100323.94;4979203;28;976;-29
2022/11/20 08:31:43;;;;;;;;;;;;;;;26.93;36.29;100326.25;4979669;28;1130;-29
2022/11/20 08:34:09;;;;;;;;;;;;;;;26.88;36.60;100325.97;4979002;28;1296;-27
2022/11/20 08:36:34;;;;;;;;;;;;;;;26.84;37.04;100320.13;4979099;28;1195;-29
2022/11/20 08:39:00;;;;;;;;;;;;;;;26.81;37.53;100317.81;4978759;28;1145;-27
2022/11/20 08:41:26;;;;;;;;;;;;;;;26.93;36.58;100310.06;4979099;28;1170;-27
2022/11/20 08:43:57;;;;;;;;;;;;;;;26.96;36.64;100306.16;4977543;28;1863;-30
2022/11/20 08:46:23;;;;;;;;;;;;;;;26.98;36.30;100302.22;4976623;28;1044;-28
2022/11/20 08:48:48;;;;;;;;;;;;;;;26.92;37.14;100294.03;4978665;28;1907;-28
2022/11/20 08:51:14;;;;;;;;;;;;;;;26.88;37.03;100301.69;4971098;28;1567;-29
2022/11/20 08:53:39;;;;;;;;;;;;;;;26.89;37.08;100308.78;4979314;28;1308;-27
2022/11/20 08:56:05;;;;;;;;;;;;;;;26.78;37.35;100302.00;4973995;28;1345;-28
2022/11/20 08:58:30;;;;;;;;;;;;;;;26.85;36.86;100302.91;4978110;28;1153;-28
2022/11/20 09:00:55;;;;;;;;;;;;;;;26.77;37.42;100305.75;4976238;28;1309;-30
2022/11/20 09:03:20;;;;;;;;;;;;;;;26.74;37.73;100300.75;4978668;28;983;-27
2022/11/20 09:05:46;;;;;;;;;;;;;;;26.88;37.30;100302.53;4977997;28;1007;-27
2022/11/20 09:08:11;;;;;;;;;;;;;;;26.85;37.50;100308.31;4978707;28;1949;-29
2022/11/20 09:10:39;;;;;;;;;;;;;;;26.85;37.65;100299.38;4977545;28;1253;-30
2022/11/20 09:13:04;;;;;;;;;;;;;;;26.86;37.61;100298.38;4978033;28;2410;-29
2022/11/20 09:15:29;;;;;;;;;;;;;;;26.86;37.78;100291.09;4978644;28;1229;-27
2022/11/20 09:17:55;;;;;;;;;;;;;;;26.92;37.77;100292.19;4977433;28;1164;-28
2022/11/20 09:20:21;;;;;;;;;;;;;;;26.83;37.77;100291.47;4978644;28;1106;-28
2022/11/20 09:22:46;;;;;;;;;;;;;;;26.80;37.77;100283.78;4971374;28;1335;-28
2022/11/20 09:25:11;;;;;;;;;;;;;;;26.84;37.82;100289.63;4978351;28;1086;-29
2022/11/20 09:27:37;;;;;;;;;;;;;;;26.81;37.78;100284.63;4978386;28;1971;-29
2022/11/20 09:30:03;;;;;;;;;;;;;;;26.77;37.79;100287.69;4978966;28;1149;-29
2022/11/20 09:32:29;;;;;;;;;;;;;;;26.81;37.53;100285.44;4978917;28;1110;-31
2022/11/20 09:34:54;;;;;;;;;;;;;;;26.81;38.00;100285.44;4978159;28;1122;-30
2022/11/20 09:37:19;;;;;;;;;;;;;;;26.75;37.79;100289.75;4978353;28;1093;-30
2022/11/20 09:39:44;;;;;;;;;;;;;;;26.86;37.87;100282.19;4978382;28;1141;-30
2022/11/20 09:42:14;;;;;;;;;;;;;;;26.86;37.68;100276.78;4978640;28;1075;-29
2022/11/20 09:44:39;;;;;;;;;;;;;;;26.84;37.44;100271.53;4957261;28;2577;-28
2022/11/20 09:47:08;;;;;;;;;;;;;;;26.90;37.45;100278.06;4977787;28;1964;-31
2022/11/20 09:49:50;;;;;;;;;;;;;;;26.91;37.35;100274.31;4959557;28;1210;-29
2022/11/20 09:52:15;;;;;;;;;;;;;;;26.92;37.05;100256.25;4957176;28;1149;-29
2022/11/20 09:54:40;;;;;;;;;;;;;;;26.95;37.18;100255.88;4978244;28;1114;-30
2022/11/20 09:57:09;;;;;;;;;;;;;;;26.97;37.09;100259.22;4959947;28;1178;-28
2022/11/20 09:59:35;;;;;;;;;;;;;;;26.94;37.41;100248.81;4960826;28;1058;-29
2022/11/20 10:02:00;;;;;;;;;;;;;;;26.98;36.93;100250.94;4977659;28;1023;-31
2022/11/20 10:04:26;;;;;;;;;;;;;;;26.90;36.94;100260.00;4960265;28;1190;-28
2022/11/20 10:07:09;;;;;;;;;;;;;;;26.90;37.65;100261.84;4960441;28;1973;-32
2022/11/20 10:09:36;;;;;;;;;;;;;;;26.90;37.36;100254.59;4977443;28;1152;-29
2022/11/20 10:12:01;;;;;;;;;;;;;;;26.92;37.74;100243.63;4959831;28;1063;-29
2022/11/20 10:14:59;;;;;;;;;;;;;;;26.92;37.26;100240.91;4977667;28;2651;-30
2022/11/20 10:17:24;;;;;;;;;;;;;;;26.93;37.47;100226.38;4936448;29;1620;-32
2022/11/20 10:19:55;;;;;;;;;;;;;;;26.94;37.60;100227.22;4975558;28;1123;-29
2022/11/20 10:22:30;;;;;;;;;;;;;;;26.92;36.88;100213.94;4977201;28;1136;-30
2022/11/20 10:24:56;;;;;;;;;;;;;;;26.88;36.95;100202.69;4977234;28;1118;-32
2022/11/20 10:27:30;;;;;;;;;;;;;;;26.87;37.67;100208.28;4977251;28;1967;-29
2022/11/20 10:30:01;;;;;;;;;;;;;;;26.84;38.10;100217.56;4960064;28;1126;-29
2022/11/20 10:32:29;;;;;;;;;;;;;;;26.75;38.20;100221.44;4977724;28;1071;-30
2022/11/20 10:35:01;;;;;;;;;;;;;;;26.85;37.86;100216.56;4958994;28;1186;-28
2022/11/20 10:37:27;;;;;;;;;;;;;;;26.80;37.95;100212.78;4960215;28;1146;-28
2022/11/20 10:40:05;;;;;;;;;;;;;;;26.89;37.11;100211.63;4960240;28;1186;-33
2022/11/20 10:42:42;;;;;;;;;;;;;;;26.89;37.35;100203.53;4958926;28;2240;-32
2022/11/20 10:45:28;;;;;;;;;;;;;;;26.81;37.88;100211.75;4976234;28;1061;-28
2022/11/20 10:47:54;;;;;;;;;;;;;;;26.81;38.05;100209.06;4959263;28;1891;-28
2022/11/20 10:50:20;;;;;;;;;;;;;;;26.87;37.42;100210.97;4955365;28;1078;-28
2022/11/20 10:53:04;;;;;;;;;;;;;;;26.99;37.52;100200.50;4977433;28;1086;-29
2022/11/20 10:55:48;;;;;;;;;;;;;;;26.82;37.64;100203.47;4977276;28;1209;-28
2022/11/20 10:58:14;;;;;;;;;;;;;;;26.76;37.50;100188.88;4976698;28;1197;-32
2022/11/20 11:00:39;;;;;;;;;;;;;;;26.82;37.46;100206.16;4958828;28;1192;-30
2022/11/20 11:03:20;;;;;;;;;;;;;;;26.83;37.72;100206.97;4977280;28;1090;-33
2022/11/20 11:05:49;;;;;;;;;;;;;;;26.76;37.33;100205.06;4974284;28;1428;-32
2022/11/20 11:08:16;;;;;;;;;;;;;;;26.71;37.09;100202.09;4951966;28;1950;-31
2022/11/20 11:10:47;;;;;;;;;;;;;;;26.79;37.24;100193.06;4959365;28;1180;-32
2022/11/20 11:13:19;;;;;;;;;;;;;;;26.78;36.90;100186.81;4970209;28;1777;-34
2022/11/20 11:15:44;;;;;;;;;;;;;;;26.73;37.58;100185.72;4975040;28;1143;-29
2022/11/20 11:18:10;;;;;;;;;;;;;;;26.66;37.58;100191.06;4977221;28;1141;-29
2022/11/20 11:20:36;;;;;;;;;;;;;;;26.70;37.45;100202.31;4976609;28;1196;-29
2022/11/20 11:23:01;;;;;;;;;;;;;;;26.62;37.75;100203.28;4976663;28;1264;-31
2022/11/20 11:25:33;;;;;;;;;;;;;;;26.69;37.42;100200.66;4977494;28;1130;-30
2022/11/20 11:28:17;;;;;;;;;;;;;;;26.66;37.58;100204.53;4977288;28;1956;-32
2022/11/20 11:30:43;;;;;;;;;;;;;;;26.70;37.31;100205.84;4977055;28;1126;-28
2022/11/20 11:33:12;;;;;;;;;;;;;;;26.80;37.33;100207.38;4977137;28;1090;-32
2022/11/20 11:35:47;;;;;;;;;;;;;;;26.69;37.51;100212.28;4975230;28;1580;-32
2022/11/20 11:38:13;;;;;;;;;;;;;;;26.60;38.02;100211.56;4965059;28;1032;-29
2022/11/20 11:40:39;;;;;;;;;;;;;;;26.59;37.45;100209.06;4959672;28;980;-29
2022/11/20 11:43:05;;;;;;;;;;;;;;;26.62;37.72;100222.16;4959775;28;2500;-34
2022/11/20 11:45:52;;;;;;;;;;;;;;;26.49;38.31;100218.28;4978395;28;1122;-32
2022/11/20 11:48:17;;;;;;;;;;;;;;;26.39;38.28;100234.78;4980153;28;1961;-33
2022/11/20 11:50:47;;;;;;;;;;;;;;;26.38;38.41;100234.97;4963476;28;1115;-28
2022/11/20 11:53:13;;;;;;;;;;;;;;;26.39;38.84;100245.56;4979782;28;1161;-29
2022/11/20 11:55:41;;;;;;;;;;;;;;;26.42;38.78;100230.88;4962844;28;1456;-33
2022/11/20 11:58:16;;;;;;;;;;;;;;;26.40;39.02;100233.78;4973747;28;1552;-33
2022/11/20 12:00:45;;;;;;;;;;;;;;;26.57;38.55;100236.22;4980054;28;900;-30
2022/11/20 12:03:24;;;;;;;;;;;;;;;26.83;37.71;100229.41;4962601;28;1027;-31
2022/11/20 12:06:10;;;;;;;;;;;;;;;26.79;37.61;100236.25;4962805;28;1122;-29
2022/11/20 12:08:42;;;;;;;;;;;;;;;26.64;37.46;100247.09;4974243;28;1971;-27
2022/11/20 12:11:23;;;;;;;;;;;;;;;26.60;37.65;100238.53;4979507;28;1142;-28
2022/11/20 12:13:50;;;;;;;;;;;;;;;26.64;37.66;100230.91;4969329;28;2372;-30
2022/11/20 12:16:17;;;;;;;;;;;;;;;26.60;37.88;100232.31;4962489;28;1103;-31
2022/11/20 12:18:42;;;;;;;;;;;;;;;26.36;38.00;100228.97;4979475;28;1074;-35
2022/11/20 12:21:11;;;;;;;;;;;;;;;26.38;38.09;100229.59;4966068;28;1024;-29
2022/11/20 12:23:46;;;;;;;;;;;;;;;26.43;38.00;100219.06;4962101;28;1302;-28
2022/11/20 12:26:30;;;;;;;;;;;;;;;26.33;38.09;100222.06;4979541;28;1118;-31
2022/11/20 12:29:14;;;;;;;;;;;;;;;26.38;37.67;100221.50;4979445;28;1914;-28
2022/11/20 12:31:51;;;;;;;;;;;;;;;26.38;37.72;100213.41;4980123;28;1549;-30
2022/11/20 12:34:24;;;;;;;;;;;;;;;26.45;37.68;100211.63;4979585;28;1235;-28
2022/11/20 12:36:49;;;;;;;;;;;;;;;26.35;38.14;100211.94;4977966;28;1014;-32
2022/11/20 12:39:14;;;;;;;;;;;;;;;26.15;38.42;100209.81;4979403;28;1166;-28
2022/11/20 12:47:42;;;;;;;;;;;;;;;26.45;37.37;100214.31;4964138;28;1966;-28
2022/11/20 12:50:07;;;;;;;;;;;;;;;26.41;37.25;100223.81;4966580;28;1008;-33
2022/11/20 12:52:55;;;;;;;;;;;;;;;26.33;37.61;100229.31;4979066;28;1137;-29
2022/11/20 12:55:23;;;;;;;;;;;;;;;26.36;37.67;100224.38;4950960;28;1107;-32
2022/11/20 12:57:52;;;;;;;;;;;;;;;26.32;37.67;100231.16;4978050;28;1184;-29
2022/11/20 13:00:21;;;;;;;;;;;;;;;26.33;37.53;100221.22;4968878;28;975;-28